ADDS METAR Data INFO
IDs: Format: Raw Decoded Include TAF

Data at: 2135 UTC 15 Dec 2017

KFWA 152054Z 27014KT 10SM FEW039 M02/M08 A2992 RMK AO2 SNE18 SLP143 P0000 60000 T10221083 53005
KFWA 152013Z 27015G24KT 9SM -SN OVC037 M02/M08 A2991 RMK AO2 P0000 T10221078
KFWA 151954Z 26020KT 8SM -SN BKN027 OVC037 M02/M07 A2991 RMK AO2 SLP137 P0000 T10221072
KFWA 151854Z 27013KT 4SM -SN BKN020 BKN025 OVC039 M03/M06 A2990 RMK AO2 SLP136 P0000 T10281056
KFWA 151824Z 26017G22KT 4SM -SN FEW018 BKN025 OVC039 M03/M06 A2990 RMK AO2 P0000 T10281056
KFWA 151754Z 25017KT 2SM -SN SCT018 BKN023 OVC041 M03/M06 A2991 RMK AO2 PK WND 25027/1656 VIS 1 1/2V4 SLP138 4/001 P0000 60000 T10281061 11028 21044 58006
KFWA 151654Z 26016KT 9SM -SN OVC022 M03/M07 A2991 RMK AO2 SLP141 P0000 T10331067
KFWA 151554Z 24016G23KT 9SM -SN OVC022 M03/M07 A2993 RMK AO2 SNB04 SLP145 P0000 T10331072
KFWA 151517Z 24017G25KT 9SM -SN OVC029 M03/M07 A2992 RMK AO2 SNB04 P0000 T10331072
KFWA 151454Z 23014KT 10SM OVC030 M03/M08 A2992 RMK AO2 SLP145 T10331078 56010
KFWA 151354Z 23012KT 10SM OVC032 M04/M08 A2993 RMK AO2 SLP146 T10391078
KFWA 151254Z 24010KT 10SM OVC033 M04/M08 A2995 RMK AO2 SLP153 T10441078
KFWA 151154Z 22009KT 10SM OVC039 M04/M08 A2996 RMK AO2 SLP157 4/001 60000 T10441078 11044 21061 56010
KFWA 151054Z 22010KT 10SM OVC040 M04/M08 A2996 RMK AO2 SLP158 T10441083
KFWA 150954Z 21008KT 10SM OVC038 M05/M08 A2998 RMK AO2 SLP163 T10501083
KFWA 150854Z 20007KT 10SM OVC041 M05/M08 A2999 RMK AO2 SLP166 60000 T10501083 56016
KFWA 150754Z 19009KT 10SM OVC041 M05/M09 A3000 RMK AO2 SNE24 SLP172 P0000 T10501089
KFWA 150654Z 20007KT 10SM -SN FEW027 OVC041 M06/M09 A3001 RMK AO2 SNB13 SLP175 P0000 T10561094
KFWA 150554Z 20003KT 10SM OVC041 M06/M09 A3004 RMK AO2 SLP184 4/001 T10611094 11061 21083 58015
KFWA 150454Z 00000KT 10SM OVC037 M07/M10 A3006 RMK AO2 SLP191 T10721100 410111111
KFWA 150354Z 16003KT 10SM FEW044 SCT230 M07/M11 A3008 RMK AO2 SLP197 T10721106
KFWA 150254Z 00000KT 10SM OVC043 M07/M11 A3008 RMK AO2 SLP200 T10721111 55001
KFWA 150154Z 00000KT 10SM SCT031 BKN230 M08/M11 A3008 RMK AO2 SLP200 T10781106
KFWA 150054Z 00000KT 10SM OVC044 M08/M12 A3008 RMK AO2 SLP201 T10781117
KFWA 142354Z 00000KT 10SM BKN043 OVC210 M08/M12 A3008 RMK AO2 SLP202 4/001 T10781117 11044 21083 51014
KFWA 142254Z 18004KT 10SM BKN040 M07/M12 A3008 RMK AO2 SLP197 T10671117
KFWA 142154Z 23003KT 10SM SCT040 OVC230 M06/M11 A3007 RMK AO2 SLP194 T10611111
KFWA 142054Z 22003KT 10SM FEW043 BKN190 BKN250 M05/M12 A3004 RMK AO2 SLP186 T10501122 55001
KFWA 141954Z 19003KT 10SM FEW046 BKN190 BKN250 M05/M13 A3004 RMK AO2 SLP184 T10501128
KFWA 141854Z 00000KT 10SM FEW044 BKN210 M05/M13 A3004 RMK AO2 SLP184 T10501128
KFWA 141754Z 20003KT 10SM FEW044 BKN220 M06/M12 A3005 RMK AO2 SLP186 4/001 T10611122 11050 21111 50004
KFWA 141654Z 00000KT 10SM FEW040 BKN240 M06/M13 A3006 RMK AO2 SLP190 T10611128
KFWA 141554Z 00000KT 10SM FEW036 BKN250 M07/M13 A3007 RMK AO2 SLP192 T10671128
KFWA 141454Z 36005KT 10SM FEW033 BKN250 M08/M12 A3003 RMK AO2 SLP181 T10781122 51034
KFWA 141354Z 31004KT 10SM BKN250 M09/M12 A3000 RMK AO2 SLP171 T10941122
KFWA 141254Z 34008KT 10SM FEW019 FEW250 M10/M12 A2997 RMK AO2 SLP160 T11001122
KFWA 141154Z 34008KT 10SM FEW019 M09/M12 A2993 RMK AO2 SLP147 4/001 70008 T10941117 11039 21094 51038 $
KFWA 141054Z 33006KT 10SM SCT019 M07/M11 A2989 RMK AO2 SLP131 T10721106 $
KFWA 140954Z 33009KT 10SM OVC017 M06/M09 A2986 RMK AO2 SLP122 T10611094 $